createdAt,value
2022-08-07T00:00:26.019Z,3.30
2022-08-07T00:03:05.988Z,3.20
2022-08-07T00:05:37.596Z,3.40
2022-08-07T00:08:07.834Z,3.20
2022-08-07T00:10:47.611Z,3.40
2022-08-07T00:13:24.091Z,3.40
2022-08-07T00:15:54.872Z,3.20
2022-08-07T00:18:25.941Z,3.80
2022-08-07T00:21:01.790Z,3.80
2022-08-07T00:23:34.758Z,4.00
2022-08-07T00:26:18.718Z,3.70
2022-08-07T00:28:55.755Z,3.60
2022-08-07T00:31:38.111Z,3.80
2022-08-07T00:34:10.631Z,3.70
2022-08-07T00:36:43.269Z,3.60
2022-08-07T00:39:16.545Z,3.70
2022-08-07T00:42:02.283Z,4.30
2022-08-07T00:44:34.737Z,4.40
2022-08-07T00:47:06.487Z,4.40
2022-08-07T00:50:18.979Z,6.40
2022-08-07T00:52:33.348Z,5.50
2022-08-07T00:55:10.574Z,4.70
2022-08-07T00:57:44.521Z,4.50
2022-08-07T01:00:24.753Z,4.00
2022-08-07T01:02:52.555Z,4.10
2022-08-07T01:05:21.190Z,4.00
2022-08-07T01:07:52.730Z,4.00
2022-08-07T01:10:23.503Z,4.00
2022-08-07T01:12:54.634Z,3.90
2022-08-07T01:16:00.896Z,4.20
2022-08-07T01:18:17.728Z,4.80
2022-08-07T01:21:22.509Z,4.00
2022-08-07T01:23:52.465Z,4.10
2022-08-07T01:26:23.471Z,3.80
2022-08-07T01:28:55.692Z,3.90
2022-08-07T01:31:42.827Z,4.10
2022-08-07T01:34:17.922Z,3.90
2022-08-07T01:36:58.091Z,4.30
2022-08-07T01:39:40.736Z,4.30
2022-08-07T01:42:37.966Z,4.20
2022-08-07T01:45:18.110Z,3.90
2022-08-07T01:48:20.950Z,4.20
2022-08-07T01:50:42.998Z,3.70
2022-08-07T01:53:21.113Z,3.90
2022-08-07T01:56:03.366Z,4.20
2022-08-07T01:58:40.941Z,4.00
2022-08-07T02:01:25.485Z,4.20
2022-08-07T02:04:11.841Z,4.40
2022-08-07T02:06:44.271Z,4.20
2022-08-07T02:09:52.428Z,4.10
2022-08-07T02:12:29.265Z,4.20
2022-08-07T02:15:01.466Z,4.20
2022-08-07T02:17:39.388Z,3.90
2022-08-07T02:20:19.740Z,4.10
2022-08-07T02:22:57.428Z,4.10
2022-08-07T02:26:10.770Z,3.80
2022-08-07T02:28:24.695Z,3.80
2022-08-07T02:30:56.471Z,3.90
2022-08-07T02:33:41.915Z,3.90
2022-08-07T02:36:30.015Z,3.70
2022-08-07T02:39:09.241Z,4.00
2022-08-07T02:41:50.534Z,3.70
2022-08-07T02:44:27.746Z,4.00
2022-08-07T02:47:06.475Z,3.60
2022-08-07T02:49:58.202Z,3.90
2022-08-07T02:52:33.793Z,3.80
2022-08-07T02:55:15.411Z,4.00
2022-08-07T02:58:02.771Z,3.90
2022-08-07T03:00:35.172Z,4.00
2022-08-07T03:03:07.308Z,4.10
2022-08-07T03:05:45.753Z,4.10
2022-08-07T03:08:17.893Z,4.00
2022-08-07T03:10:56.809Z,3.80
2022-08-07T03:13:29.391Z,3.80
2022-08-07T03:16:08.189Z,4.10
2022-08-07T03:18:36.268Z,3.90
2022-08-07T03:21:08.797Z,3.90
2022-08-07T03:24:20.820Z,4.00
2022-08-07T03:26:33.687Z,4.20
2022-08-07T03:29:11.311Z,4.40
2022-08-07T03:31:46.818Z,4.10
2022-08-07T03:34:22.245Z,4.40
2022-08-07T03:36:54.908Z,4.10
2022-08-07T03:39:46.127Z,4.30
2022-08-07T03:42:18.864Z,4.10
2022-08-07T03:44:53.377Z,4.10
2022-08-07T03:49:52.480Z,4.20
2022-08-07T03:52:30.790Z,4.00
2022-08-07T03:55:07.342Z,4.20
2022-08-07T03:58:32.979Z,4.00
2022-08-07T04:00:33.875Z,4.30
2022-08-07T04:03:05.233Z,4.00
2022-08-07T04:05:39.384Z,4.20
2022-08-07T04:08:12.220Z,4.20
2022-08-07T04:10:42.295Z,3.90
2022-08-07T04:13:15.441Z,4.40
2022-08-07T04:15:45.394Z,4.10
2022-08-07T04:18:56.709Z,4.80
2022-08-07T04:21:03.702Z,4.10
2022-08-07T04:23:43.225Z,4.20
2022-08-07T04:26:28.379Z,4.10
2022-08-07T04:28:58.516Z,4.20
2022-08-07T04:32:02.296Z,4.10
2022-08-07T04:34:17.282Z,4.50
2022-08-07T04:36:52.315Z,4.50
2022-08-07T04:39:25.808Z,4.40
2022-08-07T04:41:54.596Z,4.10
2022-08-07T04:44:22.739Z,4.00
2022-08-07T04:47:04.936Z,4.10
2022-08-07T04:49:57.902Z,4.60
2022-08-07T04:52:46.938Z,4.70
2022-08-07T04:58:10.608Z,4.40
2022-08-07T04:58:49.716Z,4.30
2022-08-07T05:01:36.919Z,4.50
2022-08-07T05:04:17.862Z,4.20
2022-08-07T05:07:09.679Z,4.20
2022-08-07T05:10:13.908Z,4.10
2022-08-07T05:14:44.510Z,3.90
2022-08-07T05:15:53.577Z,4.20
2022-08-07T05:18:44.150Z,3.90
2022-08-07T05:21:14.682Z,3.90
2022-08-07T05:23:50.116Z,3.90
2022-08-07T05:26:24.182Z,3.90
2022-08-07T05:28:59.468Z,3.70
2022-08-07T05:31:37.848Z,4.00
2022-08-07T05:34:12.142Z,3.60
2022-08-07T05:36:49.133Z,3.70
2022-08-07T05:40:14.055Z,3.50
2022-08-07T05:42:15.163Z,3.50
2022-08-07T05:45:14.475Z,3.70
2022-08-07T05:48:01.198Z,3.50
2022-08-07T05:50:34.163Z,3.50
2022-08-07T05:53:03.256Z,3.40
2022-08-07T05:56:03.774Z,3.20
2022-08-07T05:58:36.013Z,3.50
2022-08-07T06:01:10.437Z,3.70
2022-08-07T06:03:53.992Z,3.40
2022-08-07T06:06:29.703Z,3.30
2022-08-07T06:09:04.672Z,3.50
2022-08-07T06:11:35.009Z,3.70
2022-08-07T06:14:13.094Z,3.40
2022-08-07T06:16:56.176Z,3.70
2022-08-07T06:19:51.959Z,4.00
2022-08-07T06:22:23.392Z,3.90
2022-08-07T06:25:01.090Z,3.60
2022-08-07T06:28:00.336Z,3.60
2022-08-07T06:30:31.988Z,4.10
2022-08-07T06:33:10.008Z,3.50
2022-08-07T06:35:48.175Z,3.40
2022-08-07T06:38:31.566Z,3.70
2022-08-07T06:41:03.399Z,4.00
2022-08-07T06:43:39.506Z,3.60
2022-08-07T06:46:15.295Z,3.50
2022-08-07T06:48:59.995Z,3.70
2022-08-07T06:51:36.115Z,3.80
2022-08-07T06:55:29.150Z,4.00
2022-08-07T06:57:09.183Z,3.70
2022-08-07T07:00:12.995Z,3.90
2022-08-07T07:02:53.942Z,3.80
2022-08-07T07:06:03.652Z,3.70
2022-08-07T07:08:12.696Z,3.70
2022-08-07T07:10:54.633Z,3.60
2022-08-07T07:13:56.102Z,3.90
2022-08-07T07:16:30.231Z,3.50
2022-08-07T07:22:04.761Z,3.50
2022-08-07T07:24:32.045Z,3.20
2022-08-07T07:27:03.341Z,3.20
2022-08-07T07:29:40.315Z,3.30
2022-08-07T07:32:25.971Z,3.50
2022-08-07T07:34:58.026Z,2.80
2022-08-07T07:37:47.398Z,3.60
2022-08-07T07:40:20.408Z,3.00
2022-08-07T07:42:55.457Z,3.10
2022-08-07T07:46:36.936Z,2.90
2022-08-07T07:48:34.786Z,2.90
2022-08-07T07:51:08.447Z,2.90
2022-08-07T07:53:51.867Z,2.90
2022-08-07T07:56:29.996Z,2.80
2022-08-07T07:59:05.997Z,2.80
2022-08-07T08:02:03.857Z,2.70
2022-08-07T08:04:28.113Z,3.20
2022-08-07T08:06:56.203Z,2.70
2022-08-07T08:09:29.135Z,2.70
2022-08-07T08:12:03.060Z,2.30
2022-08-07T08:14:34.249Z,2.80
2022-08-07T08:17:32.357Z,2.70
2022-08-07T08:20:19.315Z,2.70
2022-08-07T08:23:08.366Z,2.60
2022-08-07T08:25:56.243Z,2.50
2022-08-07T08:28:38.031Z,2.40
2022-08-07T08:31:15.774Z,2.60
2022-08-07T08:33:49.908Z,2.50
2022-08-07T08:36:29.915Z,2.50
2022-08-07T08:39:02.104Z,2.40
2022-08-07T08:41:57.758Z,2.60
2022-08-07T08:44:33.569Z,2.30
2022-08-07T08:47:14.035Z,2.40
2022-08-07T08:50:28.570Z,2.20
2022-08-07T08:53:21.664Z,2.40
2022-08-07T08:55:58.643Z,2.30
2022-08-07T08:58:50.641Z,2.20
2022-08-07T09:01:40.047Z,2.10
2022-08-07T09:04:28.871Z,2.20
2022-08-07T09:07:23.133Z,1.90
2022-08-07T09:10:29.372Z,2.10
2022-08-07T09:13:36.763Z,2.30
2022-08-07T09:16:29.856Z,2.10
2022-08-07T09:19:51.377Z,2.00
2022-08-07T09:24:28.473Z,1.90
2022-08-07T09:25:30.417Z,1.90
2022-08-07T09:28:05.343Z,1.70
2022-08-07T09:31:17.120Z,2.00
2022-08-07T09:34:07.922Z,1.80
2022-08-07T09:36:53.175Z,2.10
2022-08-07T09:39:55.559Z,1.50
2022-08-07T09:42:41.066Z,1.60
2022-08-07T09:47:49.986Z,2.00
2022-08-07T09:48:56.029Z,2.00
2022-08-07T09:52:16.325Z,1.70
2022-08-07T09:54:58.940Z,1.40
2022-08-07T09:57:58.475Z,1.50
2022-08-07T10:00:32.532Z,1.40
2022-08-07T10:04:06.452Z,1.40
2022-08-07T10:06:35.662Z,1.60
2022-08-07T10:09:59.207Z,1.40
2022-08-07T10:12:52.653Z,1.50
2022-08-07T10:18:17.608Z,1.70
2022-08-07T10:21:50.736Z,1.20
2022-08-07T10:24:46.062Z,1.50
2022-08-07T10:27:27.194Z,1.50
2022-08-07T10:30:27.170Z,1.70
2022-08-07T10:34:06.033Z,1.30
2022-08-07T10:36:50.630Z,1.70
2022-08-07T10:40:03.421Z,1.50
2022-08-07T10:42:58.371Z,1.60
2022-08-07T10:45:45.386Z,1.40
2022-08-07T10:48:35.441Z,1.50
2022-08-07T10:51:16.874Z,1.20
2022-08-07T10:54:30.747Z,1.60
2022-08-07T10:57:10.768Z,1.40
2022-08-07T10:59:53.256Z,1.20
2022-08-07T11:02:32.981Z,1.30
2022-08-07T11:05:24.139Z,1.40
2022-08-07T11:08:11.821Z,1.30
2022-08-07T11:10:55.410Z,1.20
2022-08-07T11:14:46.353Z,1.30
2022-08-07T11:17:09.006Z,1.20
2022-08-07T11:19:53.344Z,1.10
2022-08-07T11:25:42.532Z,1.10
2022-08-07T11:28:29.910Z,1.60
2022-08-07T11:31:35.016Z,1.20
2022-08-07T11:34:36.765Z,1.40
2022-08-07T11:37:57.389Z,1.30
2022-08-07T11:40:39.446Z,1.50
2022-08-07T11:43:54.640Z,1.50
2022-08-07T11:46:38.010Z,1.30
2022-08-07T11:49:51.494Z,1.30
2022-08-07T11:52:35.722Z,1.20
2022-08-07T11:56:13.936Z,1.20
2022-08-07T11:58:38.537Z,1.10
2022-08-07T12:01:29.479Z,1.70
2022-08-07T12:04:38.280Z,1.20
2022-08-07T12:07:26.951Z,1.30
2022-08-07T12:09:55.374Z,1.50
2022-08-07T12:12:26.673Z,1.40
2022-08-07T12:15:01.977Z,1.30
2022-08-07T12:17:57.827Z,1.50
2022-08-07T12:20:36.517Z,1.30
2022-08-07T12:23:21.443Z,1.50
2022-08-07T12:26:29.035Z,1.20
2022-08-07T12:28:58.551Z,1.70
2022-08-07T12:32:02.236Z,1.50
2022-08-07T12:34:36.181Z,1.50
2022-08-07T12:37:08.427Z,1.50
2022-08-07T12:39:51.468Z,1.80
2022-08-07T12:42:27.519Z,2.40
2022-08-07T12:44:59.089Z,1.40
2022-08-07T12:47:32.830Z,1.00
2022-08-07T12:50:38.954Z,1.00
2022-08-07T12:53:22.015Z,1.00
2022-08-07T12:56:09.250Z,1.00
2022-08-07T12:58:44.453Z,1.10
2022-08-07T13:01:32.356Z,0.70
2022-08-07T13:04:31.573Z,0.70
2022-08-07T13:08:14.674Z,0.90
2022-08-07T13:10:37.897Z,0.60
2022-08-07T13:13:48.212Z,0.30
2022-08-07T13:16:27.117Z,1.10
2022-08-07T13:19:11.482Z,0.70
2022-08-07T13:21:57.501Z,0.90
2022-08-07T13:24:43.883Z,0.90
2022-08-07T13:28:12.576Z,1.00
2022-08-07T13:30:41.425Z,1.10
2022-08-07T13:34:33.179Z,1.30
2022-08-07T13:36:30.228Z,0.80
2022-08-07T13:39:12.651Z,1.00
2022-08-07T13:41:50.353Z,1.10
2022-08-07T13:44:34.561Z,1.00
2022-08-07T13:47:09.842Z,1.20
2022-08-07T13:50:36.632Z,1.70
2022-08-07T13:52:41.170Z,1.50
2022-08-07T13:55:26.511Z,1.00
2022-08-07T13:58:31.820Z,1.10
2022-08-07T14:01:21.915Z,1.10
2022-08-07T14:04:07.005Z,1.10
2022-08-07T14:06:40.065Z,0.90
2022-08-07T14:09:17.043Z,1.20
2022-08-07T14:12:10.506Z,1.30
2022-08-07T14:14:47.899Z,0.70
2022-08-07T14:18:12.196Z,0.80
2022-08-07T14:20:43.777Z,0.80
2022-08-07T14:23:31.728Z,0.90
2022-08-07T14:26:23.654Z,0.70
2022-08-07T14:29:05.922Z,1.50
2022-08-07T14:31:56.539Z,0.70
2022-08-07T14:34:30.897Z,1.10
2022-08-07T14:40:17.120Z,0.70
2022-08-07T14:42:32.253Z,0.70
2022-08-07T14:47:58.619Z,0.80
2022-08-07T14:50:29.219Z,0.60
2022-08-07T14:53:09.725Z,1.00
2022-08-07T14:55:55.863Z,0.50
2022-08-07T14:58:29.005Z,1.20
2022-08-07T15:01:00.061Z,1.10
2022-08-07T15:03:52.875Z,1.20
2022-08-07T15:12:09.683Z,0.70
2022-08-07T15:14:56.072Z,0.80
2022-08-07T15:17:54.614Z,1.00
2022-08-07T15:20:31.216Z,1.10
2022-08-07T15:23:20.322Z,0.90
2022-08-07T15:25:56.374Z,1.00
2022-08-07T15:32:00.886Z,0.90
2022-08-07T15:34:14.788Z,0.70
2022-08-07T15:37:03.911Z,0.90
2022-08-07T15:39:57.070Z,0.90
2022-08-07T15:42:43.703Z,0.60
2022-08-07T15:45:20.647Z,0.90
2022-08-07T15:51:08.263Z,0.90
2022-08-07T15:53:53.193Z,1.00
2022-08-07T15:56:38.229Z,0.90
2022-08-07T15:59:16.418Z,0.80
2022-08-07T16:02:01.743Z,0.90
2022-08-07T16:04:33.508Z,1.00
2022-08-07T16:08:30.228Z,0.90
2022-08-07T16:10:05.103Z,1.30
2022-08-07T16:13:01.324Z,1.20
2022-08-07T16:16:06.414Z,1.30
2022-08-07T16:18:50.340Z,1.50
2022-08-07T16:22:01.785Z,1.30
2022-08-07T16:24:40.605Z,1.90
2022-08-07T16:27:40.658Z,2.30
2022-08-07T16:30:30.580Z,1.90
2022-08-07T16:34:02.644Z,1.90
2022-08-07T16:36:31.455Z,1.60
2022-08-07T16:39:16.599Z,1.30
2022-08-07T16:42:11.164Z,1.40
2022-08-07T16:45:14.940Z,1.70
2022-08-07T16:48:27.796Z,1.50
2022-08-07T16:52:01.682Z,1.20
2022-08-07T16:54:33.088Z,1.10
2022-08-07T16:57:15.786Z,1.10
2022-08-07T17:00:15.008Z,1.20
2022-08-07T17:03:10.361Z,1.90
2022-08-07T17:06:29.767Z,1.30
2022-08-07T17:09:13.891Z,1.60
2022-08-07T17:12:01.786Z,1.50
2022-08-07T17:14:46.382Z,3.80
2022-08-07T17:17:46.650Z,1.90
2022-08-07T17:20:30.100Z,4.00
2022-08-07T17:23:32.297Z,2.80
2022-08-07T17:26:04.094Z,1.80
2022-08-07T17:28:49.973Z,1.60
2022-08-07T17:31:22.540Z,1.90
2022-08-07T17:34:33.131Z,1.70
2022-08-07T17:37:14.424Z,1.50
2022-08-07T17:40:08.193Z,2.20
2022-08-07T17:42:58.270Z,2.40
2022-08-07T17:45:31.439Z,2.40
2022-08-07T17:48:10.399Z,2.70
2022-08-07T17:51:01.778Z,2.50
2022-08-07T17:54:06.396Z,1.90
2022-08-07T17:57:18.440Z,1.40
2022-08-07T18:00:11.341Z,1.80
2022-08-07T18:02:57.082Z,2.30
2022-08-07T18:06:02.319Z,2.20
2022-08-07T18:08:34.139Z,2.80
2022-08-07T18:12:16.539Z,2.20
2022-08-07T18:14:19.999Z,2.10
2022-08-07T18:17:18.671Z,2.00
2022-08-07T18:21:07.641Z,2.40
2022-08-07T18:23:41.008Z,2.30
2022-08-07T18:26:03.221Z,2.00
2022-08-07T18:28:57.694Z,2.40
2022-08-07T18:31:57.433Z,2.20
2022-08-07T18:35:00.890Z,2.70
2022-08-07T18:38:56.298Z,5.90
2022-08-07T18:41:10.188Z,5.90
2022-08-07T18:44:00.491Z,3.80
2022-08-07T18:46:43.154Z,2.90
2022-08-07T18:50:30.515Z,3.00
2022-08-07T18:52:52.982Z,3.00
2022-08-07T18:55:55.538Z,5.30
2022-08-07T18:58:42.472Z,5.80
2022-08-07T19:02:19.374Z,3.90
2022-08-07T19:04:57.712Z,3.10
2022-08-07T19:07:36.313Z,2.80
2022-08-07T19:10:31.287Z,3.20
2022-08-07T19:13:31.910Z,3.70
2022-08-07T19:17:00.667Z,3.40
2022-08-07T19:19:16.079Z,3.20
2022-08-07T19:21:56.022Z,3.50
2022-08-07T19:24:43.561Z,3.40
2022-08-07T19:28:57.686Z,3.60
2022-08-07T19:31:01.411Z,2.80
2022-08-07T19:33:08.265Z,2.80
2022-08-07T19:35:44.075Z,2.70
2022-08-07T19:38:17.736Z,2.60
2022-08-07T19:43:45.077Z,2.80
2022-08-07T19:46:14.619Z,2.20
2022-08-07T19:49:02.360Z,2.50
2022-08-07T19:51:51.701Z,2.50
2022-08-07T19:54:32.174Z,2.40
2022-08-07T19:58:00.429Z,2.20
2022-08-07T20:00:21.817Z,2.20
2022-08-07T20:03:06.763Z,2.30
2022-08-07T20:06:02.898Z,2.50
2022-08-07T20:08:34.384Z,2.50
2022-08-07T20:11:10.231Z,2.40
2022-08-07T20:13:47.313Z,2.30
2022-08-07T20:16:35.868Z,2.60
2022-08-07T20:19:09.865Z,2.60
2022-08-07T20:21:47.740Z,2.60
2022-08-07T20:24:21.864Z,2.80
2022-08-07T20:26:54.479Z,2.40
2022-08-07T20:29:49.346Z,2.30
2022-08-07T20:32:39.753Z,2.40
2022-08-07T20:35:15.871Z,2.50
2022-08-07T20:37:57.666Z,2.50
2022-08-07T20:40:34.707Z,2.80
2022-08-07T20:43:09.620Z,2.40
2022-08-07T20:46:27.103Z,2.70
2022-08-07T20:48:35.973Z,2.50
2022-08-07T20:51:09.843Z,2.80
2022-08-07T20:54:04.067Z,2.50
2022-08-07T20:56:30.594Z,2.40
2022-08-07T20:59:05.403Z,2.50
2022-08-07T21:01:45.145Z,3.00
2022-08-07T21:04:22.799Z,2.90
2022-08-07T21:06:56.829Z,3.40
2022-08-07T21:09:52.590Z,3.20
2022-08-07T21:12:30.980Z,3.10
2022-08-07T21:15:03.404Z,2.70
2022-08-07T21:18:02.189Z,3.00
2022-08-07T21:20:29.550Z,3.50
2022-08-07T21:23:08.011Z,2.80
2022-08-07T21:25:56.775Z,2.80
2022-08-07T21:29:02.328Z,2.70
2022-08-07T21:32:10.832Z,2.70
2022-08-07T21:34:46.337Z,3.30
2022-08-07T21:37:23.646Z,3.10
2022-08-07T21:40:17.991Z,3.00
2022-08-07T21:42:56.055Z,3.20
2022-08-07T21:46:08.386Z,2.90
2022-08-07T21:48:48.205Z,3.40
2022-08-07T21:51:59.819Z,3.30
2022-08-07T21:57:31.208Z,3.30
2022-08-07T22:00:23.270Z,3.50
2022-08-07T22:03:07.238Z,3.60
2022-08-07T22:06:06.867Z,3.90
2022-08-07T22:08:42.517Z,3.90
2022-08-07T22:11:17.458Z,3.90
2022-08-07T22:13:55.431Z,4.10
2022-08-07T22:16:39.616Z,3.90
2022-08-07T22:19:31.827Z,3.60
2022-08-07T22:22:29.273Z,3.50
2022-08-07T22:25:10.982Z,3.30
2022-08-07T22:28:07.351Z,3.40
2022-08-07T22:30:53.173Z,3.20
2022-08-07T22:33:53.160Z,3.10
2022-08-07T22:36:46.396Z,3.10
2022-08-07T22:39:17.821Z,3.00
2022-08-07T22:42:03.849Z,3.10
2022-08-07T22:44:58.013Z,3.10
2022-08-07T22:47:43.319Z,3.40
2022-08-07T22:50:45.990Z,2.80
2022-08-07T22:54:06.686Z,3.10
2022-08-07T22:56:47.246Z,3.00
2022-08-07T22:59:37.046Z,3.10
2022-08-07T23:02:24.658Z,2.80
2022-08-07T23:06:07.424Z,2.80
2022-08-07T23:08:30.051Z,3.20
2022-08-07T23:11:08.578Z,3.00
2022-08-07T23:14:15.946Z,3.40
2022-08-07T23:17:20.083Z,2.90
2022-08-07T23:20:40.439Z,2.90
2022-08-07T23:24:07.067Z,2.60
2022-08-07T23:26:25.149Z,2.60
2022-08-07T23:29:42.802Z,2.80
2022-08-07T23:34:23.842Z,2.60
2022-08-07T23:35:21.783Z,2.70
2022-08-07T23:38:11.633Z,3.10
2022-08-07T23:40:52.880Z,3.10
2022-08-07T23:43:43.936Z,3.10
2022-08-07T23:46:33.680Z,3.10
2022-08-07T23:49:17.588Z,2.80
2022-08-07T23:52:58.387Z,3.00
2022-08-07T23:54:55.661Z,3.20
2022-08-07T23:57:44.520Z,3.20
